createdAt,value
2022-08-14T00:01:14.503Z,11.23
2022-08-14T00:06:28.764Z,10.65
2022-08-14T00:11:32.185Z,11.20
2022-08-14T00:16:41.712Z,11.07
2022-08-14T00:21:50.314Z,13.20
2022-08-14T00:26:53.819Z,11.32
2022-08-14T00:31:57.347Z,11.52
2022-08-14T00:37:02.016Z,11.40
2022-08-14T00:42:05.990Z,11.43
2022-08-14T00:47:10.957Z,10.75
2022-08-14T00:52:17.748Z,11.38
2022-08-14T00:57:22.316Z,11.05
2022-08-14T01:02:26.409Z,11.50
2022-08-14T01:07:38.527Z,11.57
2022-08-14T01:12:49.968Z,11.63
2022-08-14T01:18:12.065Z,12.32
2022-08-14T01:23:18.780Z,11.15
2022-08-14T01:28:47.017Z,11.65
2022-08-14T01:33:59.824Z,12.38
2022-08-14T01:39:13.736Z,11.27
2022-08-14T01:44:32.303Z,10.95
2022-08-14T01:49:46.217Z,11.40
2022-08-14T01:55:01.487Z,11.65
2022-08-14T02:00:06.569Z,11.30
2022-08-14T02:05:14.214Z,12.18
2022-08-14T02:15:28.822Z,11.60
2022-08-14T02:20:33.747Z,11.57
2022-08-14T02:25:39.945Z,11.48
2022-08-14T02:30:42.897Z,11.80
2022-08-14T02:35:53.584Z,10.70
2022-08-14T02:41:12.956Z,12.43
2022-08-14T02:46:20.565Z,11.85
2022-08-14T02:57:15.530Z,12.65
2022-08-14T03:02:01.260Z,11.30
2022-08-14T03:07:07.450Z,12.52
2022-08-14T03:12:12.538Z,11.23
2022-08-14T03:17:20.315Z,11.82
2022-08-14T03:22:24.922Z,10.95
2022-08-14T03:27:35.460Z,10.95
2022-08-14T03:32:51.530Z,11.68
2022-08-14T03:39:12.601Z,11.80
2022-08-14T03:43:18.132Z,11.25
2022-08-14T03:48:30.077Z,11.18
2022-08-14T03:53:35.941Z,13.55
2022-08-14T03:58:42.130Z,11.90
2022-08-14T04:03:44.628Z,11.52
2022-08-14T04:08:51.569Z,12.57
2022-08-14T04:13:55.397Z,11.45
2022-08-14T04:18:59.978Z,11.75
2022-08-14T04:24:06.853Z,13.57
2022-08-14T04:29:14.871Z,11.82
2022-08-14T04:34:24.229Z,12.50
2022-08-14T04:39:48.146Z,10.93
2022-08-14T04:45:01.546Z,13.60
2022-08-14T04:55:08.272Z,13.18
2022-08-14T05:00:16.310Z,12.45
2022-08-14T05:05:21.499Z,13.40
2022-08-14T05:10:26.308Z,14.23
2022-08-14T05:15:39.621Z,13.27
2022-08-14T05:21:54.460Z,14.30
2022-08-14T05:26:13.267Z,12.63
2022-08-14T05:31:20.600Z,13.65
2022-08-14T05:36:23.972Z,12.80
2022-08-14T05:41:51.009Z,12.57
2022-08-14T05:46:50.678Z,15.10
2022-08-14T05:51:53.331Z,18.67
2022-08-14T05:56:56.372Z,14.80
2022-08-14T06:02:00.280Z,15.85
2022-08-14T06:07:04.559Z,15.52
2022-08-14T06:12:08.094Z,16.60
2022-08-14T06:17:25.623Z,21.83
2022-08-14T06:22:28.936Z,19.05
2022-08-14T06:27:36.748Z,18.45
2022-08-14T06:32:52.758Z,18.58
2022-08-14T06:37:58.328Z,18.65
2022-08-14T06:43:03.449Z,19.90
2022-08-14T06:48:14.768Z,17.25
2022-08-14T06:53:20.173Z,20.08
2022-08-14T06:58:28.352Z,15.73
2022-08-14T07:03:51.909Z,19.98
2022-08-14T07:08:55.012Z,14.60
2022-08-14T07:13:57.690Z,16.23
2022-08-14T07:19:01.478Z,16.00
2022-08-14T07:24:04.821Z,13.80
2022-08-14T07:29:07.284Z,11.55
2022-08-14T07:34:11.432Z,11.73
2022-08-14T07:39:14.001Z,13.27
2022-08-14T07:44:32.586Z,12.38
2022-08-14T07:49:40.493Z,14.43
2022-08-14T07:54:43.702Z,11.10
2022-08-14T07:59:49.032Z,10.43
2022-08-14T08:04:59.365Z,10.63
2022-08-14T08:10:46.248Z,11.48
2022-08-14T08:15:53.774Z,10.98
2022-08-14T08:20:59.223Z,11.48
2022-08-14T08:26:02.465Z,10.52
2022-08-14T08:31:08.202Z,11.98
2022-08-14T08:36:18.797Z,10.95
2022-08-14T08:41:21.522Z,11.05
2022-08-14T08:46:24.677Z,13.73
2022-08-14T08:51:34.442Z,10.57
2022-08-14T08:56:40.262Z,12.88
2022-08-14T09:01:43.109Z,10.00
2022-08-14T09:07:00.015Z,10.40
2022-08-14T09:12:13.898Z,12.73
2022-08-14T09:17:17.905Z,9.63
2022-08-14T09:22:34.914Z,10.57
2022-08-14T09:27:39.848Z,10.55
2022-08-14T09:32:59.155Z,9.18
2022-08-14T09:38:15.457Z,8.55
2022-08-14T09:43:32.226Z,9.82
2022-08-14T09:48:35.000Z,9.35
2022-08-14T09:54:18.851Z,10.20
2022-08-14T09:59:15.365Z,10.10
2022-08-14T10:04:33.058Z,10.07
2022-08-14T10:09:59.610Z,9.43
2022-08-14T10:15:03.068Z,12.68
2022-08-14T10:20:08.233Z,8.40
2022-08-14T10:25:41.158Z,8.02
2022-08-14T10:30:48.045Z,8.98
2022-08-14T10:35:50.829Z,8.00
2022-08-14T10:40:59.575Z,8.68
2022-08-14T10:47:36.835Z,7.65
2022-08-14T10:51:39.786Z,7.43
2022-08-14T10:56:45.921Z,7.32
2022-08-14T11:01:48.597Z,7.15
2022-08-14T11:06:54.454Z,7.00
2022-08-14T11:12:35.079Z,7.28
2022-08-14T11:17:23.013Z,7.80
2022-08-14T11:22:52.297Z,7.07
2022-08-14T11:27:57.007Z,6.50
2022-08-14T11:32:59.512Z,10.80
2022-08-14T11:38:04.349Z,6.85
2022-08-14T11:43:09.667Z,8.40
2022-08-14T11:49:03.104Z,7.18
2022-08-14T11:53:43.557Z,10.15
2022-08-14T11:58:54.100Z,7.03
2022-08-14T12:03:59.080Z,8.32
2022-08-14T12:09:03.961Z,6.45
2022-08-14T12:14:30.926Z,6.57
2022-08-14T12:19:51.474Z,6.78
2022-08-14T12:24:56.247Z,6.55
2022-08-14T12:30:01.237Z,5.88
2022-08-14T12:35:03.749Z,6.72
2022-08-14T12:40:14.011Z,7.95
2022-08-14T12:45:23.525Z,6.63
2022-08-14T12:50:36.556Z,6.82
2022-08-14T12:56:17.719Z,6.38
2022-08-14T13:01:16.988Z,8.02
2022-08-14T13:06:28.831Z,8.10
2022-08-14T13:11:44.889Z,6.68
2022-08-14T13:16:50.842Z,5.00
2022-08-14T13:22:09.620Z,5.85
2022-08-14T13:27:13.576Z,5.32
2022-08-14T13:32:19.079Z,5.07
2022-08-14T13:37:23.638Z,8.23
2022-08-14T13:42:30.908Z,5.05
2022-08-14T13:47:35.846Z,5.80
2022-08-14T13:52:52.614Z,5.55
2022-08-14T13:58:03.518Z,5.25
2022-08-14T14:03:10.413Z,5.55
2022-08-14T14:08:18.802Z,5.05
2022-08-14T14:13:22.090Z,6.82
2022-08-14T14:23:38.111Z,5.97
2022-08-14T14:28:42.649Z,5.72
2022-08-14T14:33:48.705Z,8.45
2022-08-14T14:38:54.089Z,5.93
2022-08-14T14:43:58.854Z,6.22
2022-08-14T14:49:07.717Z,6.30
2022-08-14T14:54:13.014Z,6.50
2022-08-14T14:59:16.919Z,7.63
2022-08-14T15:04:21.401Z,7.95
2022-08-14T15:09:24.226Z,7.35
2022-08-14T15:19:56.329Z,6.43
2022-08-14T15:24:59.682Z,6.43
2022-08-14T15:30:04.539Z,5.90
2022-08-14T15:35:09.325Z,11.80
2022-08-14T15:40:22.179Z,6.55
2022-08-14T15:45:25.230Z,6.60
2022-08-14T15:50:31.088Z,7.47
2022-08-14T15:55:33.534Z,9.82
2022-08-14T16:00:54.855Z,8.20
2022-08-14T16:05:59.268Z,6.30
2022-08-14T16:11:08.192Z,7.35
2022-08-14T16:16:48.169Z,10.93
2022-08-14T16:22:02.605Z,7.05
2022-08-14T16:27:05.380Z,7.18
2022-08-14T16:32:35.755Z,6.93
2022-08-14T16:37:43.343Z,7.20
2022-08-14T16:43:04.086Z,6.70
2022-08-14T16:48:58.120Z,7.10
2022-08-14T16:53:36.962Z,6.95
2022-08-14T16:58:39.732Z,7.45
2022-08-14T17:04:03.377Z,9.20
2022-08-14T17:09:23.253Z,8.45
2022-08-14T17:14:28.400Z,7.22
2022-08-14T17:19:40.140Z,8.10
2022-08-14T17:24:58.028Z,7.38
2022-08-14T17:30:08.224Z,7.45
2022-08-14T17:35:57.916Z,7.95
2022-08-14T17:41:16.164Z,7.75
2022-08-14T17:46:34.904Z,8.45
2022-08-14T17:51:54.638Z,7.75
2022-08-14T17:57:01.589Z,9.70
2022-08-14T18:02:06.031Z,10.05
2022-08-14T18:07:50.318Z,10.50
2022-08-14T18:12:43.830Z,7.97
2022-08-14T18:17:53.215Z,10.02
2022-08-14T18:22:57.519Z,7.60
2022-08-14T18:28:10.699Z,9.00
2022-08-14T18:33:22.928Z,8.25
2022-08-14T18:38:45.599Z,9.45
2022-08-14T18:43:59.128Z,9.77
2022-08-14T18:49:15.495Z,10.27
2022-08-14T18:54:33.004Z,10.48
2022-08-14T18:59:43.193Z,9.48
2022-08-14T19:04:45.895Z,10.38
2022-08-14T19:09:53.056Z,8.65
2022-08-14T19:15:08.461Z,11.88
2022-08-14T19:20:12.875Z,12.10
2022-08-14T19:25:48.446Z,9.48
2022-08-14T19:31:37.154Z,13.65
2022-08-14T19:37:05.293Z,7.70
2022-08-14T19:42:10.220Z,8.93
2022-08-14T19:47:14.581Z,11.10
2022-08-14T19:52:24.122Z,9.50
2022-08-14T19:57:29.433Z,13.23
2022-08-14T20:02:32.121Z,12.30
2022-08-14T20:08:00.139Z,10.32
2022-08-14T20:13:05.367Z,9.73
2022-08-14T20:18:22.131Z,7.72
2022-08-14T20:23:37.870Z,10.07
2022-08-14T20:28:51.330Z,13.25
2022-08-14T20:34:03.554Z,10.20
2022-08-14T20:39:15.664Z,13.95
2022-08-14T20:44:38.613Z,11.82
2022-08-14T20:49:41.135Z,12.20
2022-08-14T20:54:50.425Z,8.50
2022-08-14T20:59:56.852Z,14.90
2022-08-14T21:05:04.597Z,9.18
2022-08-14T21:10:32.783Z,12.68
2022-08-14T21:15:37.063Z,17.08
2022-08-14T21:20:42.824Z,13.30
2022-08-14T21:25:47.482Z,11.75
2022-08-14T21:30:53.092Z,13.98
2022-08-14T21:36:07.474Z,10.80
2022-08-14T21:41:41.377Z,13.20
2022-08-14T21:46:46.917Z,11.57
2022-08-14T21:51:59.771Z,11.55
2022-08-14T21:57:13.663Z,10.95
2022-08-14T22:02:32.706Z,9.65
2022-08-14T22:07:38.833Z,10.10
2022-08-14T22:12:45.437Z,10.38
2022-08-14T22:18:02.262Z,10.73
2022-08-14T22:23:08.601Z,15.05
2022-08-14T22:28:17.794Z,8.90
2022-08-14T22:33:20.970Z,10.15
2022-08-14T22:38:35.536Z,12.60
2022-08-14T22:43:40.896Z,10.25
2022-08-14T22:48:45.173Z,11.63
2022-08-14T22:53:53.211Z,11.30
2022-08-14T22:58:57.764Z,10.65
2022-08-14T23:04:00.864Z,9.23
2022-08-14T23:09:34.668Z,13.65
2022-08-14T23:14:30.601Z,9.15
2022-08-14T23:19:34.835Z,11.00
2022-08-14T23:24:41.486Z,9.50
2022-08-14T23:29:45.218Z,11.50
2022-08-14T23:34:51.639Z,9.48
2022-08-14T23:39:56.229Z,10.50
2022-08-14T23:44:59.367Z,11.73
2022-08-14T23:50:04.066Z,10.48
2022-08-14T23:55:11.841Z,11.20
